createdAt,value
2023-05-10T00:00:27.071Z,96677.41
2023-05-10T00:02:53.805Z,96678.22
2023-05-10T00:05:20.330Z,96674.97
2023-05-10T00:07:46.821Z,96678.25
2023-05-10T00:10:13.699Z,96673.13
2023-05-10T00:12:40.239Z,96667.41
2023-05-10T00:15:07.403Z,96670.13
2023-05-10T00:17:33.897Z,96672.31
2023-05-10T00:20:00.435Z,96673.13
2023-05-10T00:22:26.912Z,96672.31
2023-05-10T00:24:53.416Z,96672.59
2023-05-10T00:27:19.953Z,96674.78
2023-05-10T00:29:46.412Z,96670.72
2023-05-10T00:32:14.847Z,96679.66
2023-05-10T00:34:41.597Z,96660.41
2023-05-10T00:37:08.074Z,96664.19
2023-05-10T00:39:34.546Z,96670.97
2023-05-10T00:42:01.206Z,96663.09
2023-05-10T00:44:28.503Z,96678.03
2023-05-10T00:46:55.189Z,96675.56
2023-05-10T00:49:22.155Z,96685.34
2023-05-10T00:51:49.865Z,96686.69
2023-05-10T00:54:17.294Z,96693.19
2023-05-10T00:56:49.418Z,96691.31
2023-05-10T00:59:17.645Z,96689.69
2023-05-10T01:01:45.813Z,96685.91
2023-05-10T01:04:16.167Z,96690.22
2023-05-10T01:06:43.639Z,96696.44
2023-05-10T01:09:10.984Z,96691.31
2023-05-10T01:11:40.288Z,96691.56
2023-05-10T01:14:07.238Z,96698.06
2023-05-10T01:16:38.932Z,96700.25
2023-05-10T01:19:18.176Z,96693.72
2023-05-10T01:21:54.100Z,96693.72
2023-05-10T01:24:43.840Z,96689.66
2023-05-10T01:27:32.156Z,96698.31
2023-05-10T01:30:21.747Z,96693.47
2023-05-10T01:33:18.227Z,96702.13
2023-05-10T01:35:56.417Z,96699.13
2023-05-10T01:38:23.026Z,96692.09
2023-05-10T01:41:08.320Z,96696.69
2023-05-10T01:43:47.751Z,96697.53
2023-05-10T01:46:18.724Z,96686.16
2023-05-10T01:48:49.508Z,96700.50
2023-05-10T01:51:24.687Z,96692.94
2023-05-10T01:53:55.061Z,96704.03
2023-05-10T01:56:26.826Z,96702.16
2023-05-10T01:58:54.489Z,96699.97
2023-05-10T02:01:22.865Z,96709.47
2023-05-10T02:03:52.771Z,96708.66
2023-05-10T02:06:21.747Z,96711.63
2023-05-10T02:08:50.326Z,96713.53
2023-05-10T02:11:19.482Z,96712.16
2023-05-10T02:13:48.253Z,96714.59
2023-05-10T02:16:17.197Z,96710.25
2023-05-10T02:18:44.082Z,96709.19
2023-05-10T02:21:11.767Z,96707.53
2023-05-10T02:23:40.516Z,96713.25
2023-05-10T02:26:08.905Z,96715.66
2023-05-10T02:28:38.579Z,96724.63
2023-05-10T02:31:06.987Z,96725.72
2023-05-10T02:33:34.782Z,96730.03
2023-05-10T02:36:03.673Z,96732.72
2023-05-10T02:38:32.278Z,96738.97
2023-05-10T02:41:00.308Z,96735.72
2023-05-10T02:43:28.935Z,96741.16
2023-05-10T02:45:56.522Z,96744.41
2023-05-10T02:48:23.110Z,96743.31
2023-05-10T02:50:52.502Z,96741.97
2023-05-10T02:53:32.920Z,96752.50
2023-05-10T02:56:02.694Z,96743.06
2023-05-10T02:58:29.159Z,96757.09
2023-05-10T03:00:55.660Z,96752.50
2023-05-10T03:03:22.149Z,96743.88
2023-05-10T03:05:50.443Z,96746.03
2023-05-10T03:08:17.225Z,96744.41
2023-05-10T03:11:23.602Z,96751.97
2023-05-10T03:14:11.439Z,96765.00
2023-05-10T03:16:47.779Z,96761.47
2023-05-10T03:19:33.394Z,96756.34
2023-05-10T03:22:03.673Z,96768.00
2023-05-10T03:24:36.295Z,96766.34
2023-05-10T03:27:05.208Z,96767.44
2023-05-10T03:29:32.838Z,96764.72
2023-05-10T03:32:00.825Z,96766.34
2023-05-10T03:34:31.170Z,96764.47
2023-05-10T03:36:58.064Z,96772.84
2023-05-10T03:39:25.930Z,96766.59
2023-05-10T03:41:56.130Z,96766.34
2023-05-10T03:44:22.640Z,96763.38
2023-05-10T03:46:49.791Z,96763.91
2023-05-10T03:49:16.603Z,96764.19
2023-05-10T03:51:43.147Z,96775.56
2023-05-10T03:54:09.635Z,96778.81
2023-05-10T03:56:36.153Z,96773.94
2023-05-10T03:59:02.748Z,96776.91
2023-05-10T04:01:31.005Z,96786.66
2023-05-10T04:03:57.499Z,96776.38
2023-05-10T04:06:24.093Z,96780.16
2023-05-10T04:08:51.181Z,96777.44
2023-05-10T04:11:18.038Z,96782.63
2023-05-10T04:13:44.572Z,96782.63
2023-05-10T04:16:11.050Z,96779.06
2023-05-10T04:18:37.527Z,96777.47
2023-05-10T04:21:04.142Z,96783.69
2023-05-10T04:23:30.598Z,96782.06
2023-05-10T04:26:01.580Z,96777.72
2023-05-10T04:28:28.202Z,96792.91
2023-05-10T04:31:01.046Z,96785.06
2023-05-10T04:33:27.508Z,96786.13
2023-05-10T04:35:53.964Z,96783.16
2023-05-10T04:38:20.392Z,96783.97
2023-05-10T04:40:46.904Z,96792.63
2023-05-10T04:43:13.424Z,96788.84
2023-05-10T04:45:39.890Z,96791.00
2023-05-10T04:48:06.619Z,96804.03
2023-05-10T04:50:33.078Z,96805.66
2023-05-10T04:52:59.628Z,96806.19
2023-05-10T04:55:27.442Z,96801.88
2023-05-10T04:57:56.144Z,96802.38
2023-05-10T05:00:22.572Z,96807.00
2023-05-10T05:02:49.210Z,96806.72
2023-05-10T05:05:15.942Z,96805.38
2023-05-10T05:07:42.390Z,96798.31
2023-05-10T05:10:09.601Z,96796.41
2023-05-10T05:12:36.343Z,96802.09
2023-05-10T05:15:03.598Z,96800.75
2023-05-10T05:17:31.531Z,96803.47
2023-05-10T05:19:58.168Z,96811.06
2023-05-10T05:22:28.950Z,96817.03
2023-05-10T05:24:56.592Z,96821.09
2023-05-10T05:27:25.137Z,96820.81
2023-05-10T05:29:53.088Z,96815.94
2023-05-10T05:32:19.599Z,96820.84
2023-05-10T05:34:46.740Z,96822.97
2023-05-10T05:37:16.898Z,96825.19
2023-05-10T05:39:44.209Z,96819.16
2023-05-10T05:42:11.549Z,96820.50
2023-05-10T05:44:38.312Z,96823.50
2023-05-10T05:47:04.974Z,96817.81
2023-05-10T05:49:31.562Z,96821.31
2023-05-10T05:52:04.497Z,96817.28
2023-05-10T05:54:32.428Z,96822.94
2023-05-10T05:57:01.162Z,96825.94
2023-05-10T05:59:28.357Z,96828.38
2023-05-10T06:01:55.059Z,96825.66
2023-05-10T06:04:21.777Z,96837.88
2023-05-10T06:06:48.301Z,96845.19
2023-05-10T06:09:14.783Z,96841.38
2023-05-10T06:11:41.457Z,96835.13
2023-05-10T06:14:08.804Z,96836.97
2023-05-10T06:16:35.798Z,96841.66
2023-05-10T06:19:03.253Z,96841.91
2023-05-10T06:21:29.865Z,96836.97
2023-05-10T06:23:56.336Z,96842.69
2023-05-10T06:26:22.828Z,96845.38
2023-05-10T06:28:49.280Z,96849.09
2023-05-10T06:31:16.100Z,96847.72
2023-05-10T06:33:42.623Z,96855.03
2023-05-10T06:36:09.180Z,96850.44
2023-05-10T06:38:35.604Z,96858.91
2023-05-10T06:41:02.096Z,96860.72
2023-05-10T06:43:29.762Z,96858.53
2023-05-10T06:45:56.790Z,96860.63
2023-05-10T06:48:23.319Z,96856.41
2023-05-10T06:50:50.251Z,96855.63
2023-05-10T06:53:16.777Z,96855.16
2023-05-10T06:55:43.187Z,96865.16
2023-05-10T06:58:09.650Z,96867.41
2023-05-10T07:00:38.014Z,96866.81
2023-05-10T07:03:04.542Z,96866.31
2023-05-10T07:05:31.190Z,96861.13
2023-05-10T07:07:58.396Z,96859.81
2023-05-10T07:10:24.874Z,96859.94
2023-05-10T07:12:51.362Z,96861.75
2023-05-10T07:15:18.237Z,96862.72
2023-05-10T07:17:46.088Z,96871.50
2023-05-10T07:20:13.156Z,96861.91
2023-05-10T07:22:39.603Z,96870.16
2023-05-10T07:25:06.756Z,96874.22
2023-05-10T07:27:33.524Z,96879.34
2023-05-10T07:30:00.099Z,96881.31
2023-05-10T07:32:26.879Z,96884.47
2023-05-10T07:34:53.532Z,96876.25
2023-05-10T07:37:19.949Z,96878.06
2023-05-10T07:39:46.419Z,96881.09
2023-05-10T07:42:12.865Z,96877.50
2023-05-10T07:44:39.332Z,96880.00
2023-05-10T07:47:05.760Z,96886.16
2023-05-10T07:49:32.208Z,96884.03
2023-05-10T07:51:58.626Z,96884.56
2023-05-10T07:54:25.037Z,96887.34
2023-05-10T07:56:51.934Z,96882.72
2023-05-10T07:59:18.829Z,96885.69
2023-05-10T08:01:45.782Z,96892.94
2023-05-10T08:04:12.717Z,96894.06
2023-05-10T08:06:39.861Z,96895.50
2023-05-10T08:09:06.304Z,96888.38
2023-05-10T08:11:33.725Z,96888.41
2023-05-10T08:14:01.493Z,96893.88
2023-05-10T08:16:28.436Z,96900.63
2023-05-10T08:18:56.225Z,96909.63
2023-05-10T08:21:22.817Z,96906.16
2023-05-10T08:23:49.928Z,96909.16
2023-05-10T08:26:16.416Z,96903.97
2023-05-10T08:28:42.799Z,96900.31
2023-05-10T08:31:09.332Z,96910.81
2023-05-10T08:33:35.769Z,96924.56
2023-05-10T08:36:02.314Z,96917.28
2023-05-10T08:38:28.904Z,96913.94
2023-05-10T08:40:57.909Z,96912.00
2023-05-10T08:43:27.925Z,96913.44
2023-05-10T08:45:56.217Z,96905.44
2023-05-10T08:48:24.804Z,96922.81
2023-05-10T08:50:55.171Z,96918.38
2023-05-10T08:53:24.998Z,96921.88
2023-05-10T08:55:51.710Z,96926.16
2023-05-10T08:58:20.398Z,96918.22
2023-05-10T09:00:49.544Z,96930.31
2023-05-10T09:03:16.600Z,96917.81
2023-05-10T09:05:43.266Z,96920.53
2023-05-10T09:08:09.980Z,96922.38
2023-05-10T09:10:36.752Z,96932.66
2023-05-10T09:13:04.064Z,96925.53
2023-05-10T09:15:31.743Z,96941.53
2023-05-10T09:18:00.283Z,96933.44
2023-05-10T09:20:27.938Z,96940.78
2023-05-10T09:22:54.458Z,96945.22
2023-05-10T09:25:21.075Z,96946.06
2023-05-10T09:27:48.697Z,96944.47
2023-05-10T09:30:25.854Z,96948.81
2023-05-10T09:32:53.053Z,96955.28
2023-05-10T09:35:27.072Z,96956.84
2023-05-10T09:37:57.456Z,96954.00
2023-05-10T09:40:25.884Z,96942.34
2023-05-10T09:43:00.484Z,96955.28
2023-05-10T09:45:29.343Z,96953.59
2023-05-10T09:47:56.813Z,96947.47
2023-05-10T09:50:24.466Z,96953.88
2023-05-10T09:53:02.269Z,96959.66
2023-05-10T09:55:42.146Z,96957.31
2023-05-10T09:58:11.478Z,96959.31
2023-05-10T10:00:41.010Z,96961.34
2023-05-10T10:03:13.611Z,96964.56
2023-05-10T10:05:41.661Z,96961.94
2023-05-10T10:08:08.102Z,96973.09
2023-05-10T10:10:35.397Z,96973.44
2023-05-10T10:13:02.803Z,96970.72
2023-05-10T10:15:29.308Z,96978.00
2023-05-10T10:17:55.853Z,96974.84
2023-05-10T10:20:23.579Z,96966.00
2023-05-10T10:22:50.502Z,96971.03
2023-05-10T10:25:19.668Z,96969.09
2023-05-10T10:28:04.496Z,96971.09
2023-05-10T10:30:46.875Z,96971.22
2023-05-10T10:33:27.874Z,96963.16
2023-05-10T10:35:56.377Z,96971.03
2023-05-10T10:38:23.703Z,96963.22
2023-05-10T10:41:03.340Z,96968.88
2023-05-10T10:43:30.443Z,96966.28
2023-05-10T10:46:19.217Z,96966.19
2023-05-10T10:49:09.859Z,96969.09
2023-05-10T10:51:40.461Z,96957.19
2023-05-10T10:54:11.632Z,96948.22
2023-05-10T10:56:38.437Z,96941.28
2023-05-10T10:59:05.056Z,96965.81
2023-05-10T11:01:38.127Z,96956.22
2023-05-10T11:04:04.660Z,96959.63
2023-05-10T11:06:36.337Z,96960.63
2023-05-10T11:09:12.353Z,96951.22
2023-05-10T11:11:59.350Z,96984.31
2023-05-10T11:14:26.236Z,96965.75
2023-05-10T11:16:52.777Z,96980.75
2023-05-10T11:19:20.184Z,96975.38
2023-05-10T11:22:06.836Z,96973.16
2023-05-10T11:24:34.740Z,96972.78
2023-05-10T11:27:01.820Z,96975.28
2023-05-10T11:29:28.384Z,96968.50
2023-05-10T11:31:58.903Z,96970.06
2023-05-10T11:34:31.236Z,96974.56
2023-05-10T11:36:58.778Z,96977.94
2023-05-10T11:39:29.548Z,96975.50
2023-05-10T11:41:56.771Z,96977.63
2023-05-10T11:44:23.507Z,96972.88
2023-05-10T11:46:50.580Z,96976.16
2023-05-10T11:49:17.159Z,96981.97
2023-05-10T11:51:44.540Z,96983.84
2023-05-10T11:54:12.220Z,96983.69
2023-05-10T11:56:42.028Z,96976.53
2023-05-10T11:59:09.188Z,96976.63
2023-05-10T12:01:37.033Z,96987.19
2023-05-10T12:04:03.840Z,96983.66
2023-05-10T12:06:33.593Z,96980.72
2023-05-10T12:09:00.244Z,96983.81
2023-05-10T12:11:28.703Z,96988.28
2023-05-10T12:13:57.075Z,96999.88
2023-05-10T12:16:26.118Z,96996.22
2023-05-10T12:18:57.150Z,96999.59
2023-05-10T12:21:24.005Z,96992.59
2023-05-10T12:23:55.331Z,96994.09
2023-05-10T12:26:27.285Z,96993.41
2023-05-10T12:28:54.923Z,97002.75
2023-05-10T12:31:21.663Z,96992.28
2023-05-10T12:33:50.135Z,97008.47
2023-05-10T12:36:17.445Z,97000.50
2023-05-10T12:38:48.620Z,96996.53
2023-05-10T12:41:17.505Z,97003.75
2023-05-10T12:43:44.522Z,96998.88
2023-05-10T12:46:15.613Z,97001.34
2023-05-10T12:48:43.429Z,96997.09
2023-05-10T12:51:12.632Z,97007.53
2023-05-10T12:53:41.820Z,97002.13
2023-05-10T12:56:10.824Z,96994.16
2023-05-10T12:58:37.239Z,96988.75
2023-05-10T13:01:04.194Z,96986.03
2023-05-10T13:03:31.376Z,96991.78
2023-05-10T13:05:57.915Z,96984.25
2023-05-10T13:08:24.718Z,96983.69
2023-05-10T13:10:51.199Z,96988.94
2023-05-10T13:13:18.655Z,96987.03
2023-05-10T13:15:45.080Z,96987.13
2023-05-10T13:18:11.641Z,96983.56
2023-05-10T13:20:38.320Z,96994.44
2023-05-10T13:23:04.831Z,96992.38
2023-05-10T13:25:31.720Z,96985.69
2023-05-10T13:27:58.121Z,96981.47
2023-05-10T13:30:24.902Z,96990.69
2023-05-10T13:32:51.533Z,96991.94
2023-05-10T13:35:18.018Z,96991.47
2023-05-10T13:37:44.521Z,96983.22
2023-05-10T13:40:11.121Z,96981.94
2023-05-10T13:42:38.423Z,96987.78
2023-05-10T13:45:05.439Z,96985.75
2023-05-10T13:47:31.986Z,96981.38
2023-05-10T13:49:58.679Z,96978.03
2023-05-10T13:52:25.390Z,96977.09
2023-05-10T13:54:55.682Z,96976.91
2023-05-10T13:57:22.817Z,96979.84
2023-05-10T13:59:49.334Z,96971.81
2023-05-10T14:02:15.810Z,96981.19
2023-05-10T14:04:42.280Z,96976.78
2023-05-10T14:07:08.868Z,96978.56
2023-05-10T14:09:35.330Z,96979.06
2023-05-10T14:12:01.893Z,96976.78
2023-05-10T14:14:30.060Z,96980.22
2023-05-10T14:16:56.872Z,96973.94
2023-05-10T14:19:23.491Z,96982.22
2023-05-10T14:21:49.923Z,96977.72
2023-05-10T14:24:16.384Z,96969.81
2023-05-10T14:26:42.852Z,96970.56
2023-05-10T14:29:10.764Z,96965.25
2023-05-10T14:31:38.971Z,96962.56
2023-05-10T14:34:06.571Z,96972.81
2023-05-10T14:36:33.235Z,96966.13
2023-05-10T14:38:59.678Z,96962.97
2023-05-10T14:41:26.217Z,96962.00
2023-05-10T14:43:52.743Z,96961.72
2023-05-10T14:46:19.319Z,96962.00
2023-05-10T14:48:45.777Z,96967.66
2023-05-10T14:51:12.297Z,96959.03
2023-05-10T14:53:38.700Z,96961.41
2023-05-10T14:56:05.405Z,96961.25
2023-05-10T14:58:33.985Z,96959.44
2023-05-10T15:01:01.179Z,96959.75
2023-05-10T15:03:28.168Z,96971.75
2023-05-10T15:05:56.916Z,96961.31
2023-05-10T15:08:23.602Z,96963.59
2023-05-10T15:10:50.066Z,96962.34
2023-05-10T15:13:16.529Z,96961.53
2023-05-10T15:15:43.188Z,96968.53
2023-05-10T15:18:10.396Z,96970.00
2023-05-10T15:20:36.901Z,96967.84
2023-05-10T15:23:03.934Z,96957.88
2023-05-10T15:25:30.434Z,96954.56
2023-05-10T15:27:56.884Z,96962.97
2023-05-10T15:30:23.385Z,96964.47
2023-05-10T15:32:50.011Z,96954.13
2023-05-10T15:35:17.877Z,96966.06
2023-05-10T15:37:45.256Z,96964.72
2023-05-10T15:40:12.117Z,96975.13
2023-05-10T15:42:38.559Z,96974.06
2023-05-10T15:45:05.714Z,96973.09
2023-05-10T15:47:32.292Z,96972.94
2023-05-10T15:49:58.741Z,96969.28
2023-05-10T15:52:25.245Z,96972.25
2023-05-10T15:54:51.750Z,96966.88
2023-05-10T15:57:18.219Z,96967.38
2023-05-10T15:59:45.319Z,96975.31
2023-05-10T16:02:12.115Z,96979.13
2023-05-10T16:04:39.110Z,96976.47
2023-05-10T16:07:05.645Z,96973.50
2023-05-10T16:09:32.115Z,96979.91
2023-05-10T16:11:58.767Z,96968.91
2023-05-10T16:14:25.269Z,96980.44
2023-05-10T16:16:52.174Z,96978.75
2023-05-10T16:19:18.981Z,96982.66
2023-05-10T16:21:45.633Z,96977.44
2023-05-10T16:24:12.246Z,96975.47
2023-05-10T16:26:41.167Z,96981.56
2023-05-10T16:29:10.946Z,96988.72
2023-05-10T16:31:37.434Z,96991.31
2023-05-10T16:34:03.975Z,96989.75
2023-05-10T16:36:31.416Z,96990.34
2023-05-10T16:38:58.274Z,96996.59
2023-05-10T16:41:24.794Z,96996.41
2023-05-10T16:43:51.229Z,96995.91
2023-05-10T16:46:17.906Z,97003.47
2023-05-10T16:48:44.361Z,96997.19
2023-05-10T16:51:10.918Z,96992.25
2023-05-10T16:53:37.731Z,96988.75
2023-05-10T16:56:04.290Z,96997.22
2023-05-10T16:58:30.785Z,97003.09
2023-05-10T17:00:57.242Z,97004.66
2023-05-10T17:03:23.764Z,97000.22
2023-05-10T17:05:50.433Z,96997.97
2023-05-10T17:08:17.173Z,97001.22
2023-05-10T17:10:43.617Z,96999.56
2023-05-10T17:13:10.856Z,97003.00
2023-05-10T17:15:38.519Z,97004.34
2023-05-10T17:18:05.432Z,97006.94
2023-05-10T17:20:32.231Z,97015.97
2023-05-10T17:22:58.865Z,97007.97
2023-05-10T17:25:25.402Z,97009.13
2023-05-10T17:27:51.906Z,97012.56
2023-05-10T17:30:22.537Z,97014.88
2023-05-10T17:32:49.041Z,97016.69
2023-05-10T17:35:15.948Z,97013.88
2023-05-10T17:37:43.975Z,97012.44
2023-05-10T17:40:11.339Z,97010.78
2023-05-10T17:42:37.799Z,97023.97
2023-05-10T17:45:04.569Z,97012.72
2023-05-10T17:47:31.067Z,97017.09
2023-05-10T17:49:57.683Z,97015.09
2023-05-10T17:52:24.126Z,97029.53
2023-05-10T17:54:51.167Z,97026.56
2023-05-10T17:57:18.469Z,97026.41
2023-05-10T17:59:44.928Z,97026.75
2023-05-10T18:02:11.406Z,97025.88
2023-05-10T18:04:40.108Z,97033.25
2023-05-10T18:07:07.838Z,97035.72
2023-05-10T18:09:34.403Z,97030.03
2023-05-10T18:12:03.930Z,97035.19
2023-05-10T18:14:39.858Z,97029.00
2023-05-10T18:17:07.039Z,97036.88
2023-05-10T18:19:33.951Z,97038.78
2023-05-10T18:22:00.453Z,97030.13
2023-05-10T18:24:40.215Z,97034.47
2023-05-10T18:27:11.289Z,97036.38
2023-05-10T18:29:37.818Z,97025.81
2023-05-10T18:32:04.600Z,97028.56
2023-05-10T18:34:31.044Z,97032.13
2023-05-10T18:36:57.672Z,97035.66
2023-05-10T18:39:24.303Z,97034.84
2023-05-10T18:41:51.010Z,97038.13
2023-05-10T18:44:18.735Z,97034.31
2023-05-10T18:46:45.260Z,97040.28
2023-05-10T18:49:11.856Z,97038.69
2023-05-10T18:51:38.290Z,97038.97
2023-05-10T18:54:04.774Z,97038.16
2023-05-10T18:56:31.395Z,97036.25
2023-05-10T18:58:57.906Z,97038.41
2023-05-10T19:01:24.463Z,97041.38
2023-05-10T19:03:50.961Z,97039.72
2023-05-10T19:06:17.378Z,97048.63
2023-05-10T19:08:43.846Z,97048.88
2023-05-10T19:11:10.451Z,97053.53
2023-05-10T19:13:37.062Z,97058.19
2023-05-10T19:16:16.873Z,97053.81
2023-05-10T19:18:44.478Z,97062.19
2023-05-10T19:21:11.366Z,97060.25
2023-05-10T19:23:40.324Z,97064.31
2023-05-10T19:26:09.506Z,97066.13
2023-05-10T19:28:36.039Z,97066.88
2023-05-10T19:31:02.507Z,97062.03
2023-05-10T19:33:29.426Z,97062.84
2023-05-10T19:35:56.201Z,97068.56
2023-05-10T19:38:23.717Z,97074.47
2023-05-10T19:40:51.028Z,97080.19
2023-05-10T19:43:17.692Z,97078.84
2023-05-10T19:45:44.340Z,97073.16
2023-05-10T19:48:11.017Z,97076.94
2023-05-10T19:50:38.256Z,97075.91
2023-05-10T19:53:04.801Z,97077.00
2023-05-10T19:55:32.182Z,97075.66
2023-05-10T19:58:00.667Z,97081.31
2023-05-10T20:00:27.613Z,97076.44
2023-05-10T20:02:54.413Z,97076.44
2023-05-10T20:05:21.320Z,97076.44
2023-05-10T20:07:47.995Z,97080.25
2023-05-10T20:10:15.408Z,97081.88
2023-05-10T20:12:41.835Z,97081.16
2023-05-10T20:15:08.615Z,97077.38
2023-05-10T20:17:35.650Z,97075.22
2023-05-10T20:20:02.177Z,97080.91
2023-05-10T20:22:28.563Z,97076.00
2023-05-10T20:24:56.211Z,97080.34
2023-05-10T20:27:23.365Z,97076.81
2023-05-10T20:29:49.788Z,97078.19
2023-05-10T20:32:16.331Z,97070.06
2023-05-10T20:34:42.734Z,97068.44
2023-05-10T20:37:09.353Z,97074.41
2023-05-10T20:39:35.871Z,97067.56
2023-05-10T20:42:02.361Z,97063.66
2023-05-10T20:44:28.795Z,97068.03
2023-05-10T20:46:55.419Z,97060.56
2023-05-10T20:49:21.875Z,97059.50
2023-05-10T20:51:48.438Z,97060.25
2023-05-10T20:54:14.890Z,97055.63
2023-05-10T20:56:41.369Z,97056.47
2023-05-10T20:59:07.794Z,97063.81
2023-05-10T21:01:34.241Z,97055.19
2023-05-10T21:04:00.675Z,97056.28
2023-05-10T21:06:27.183Z,97054.44
2023-05-10T21:08:53.644Z,97056.63
2023-05-10T21:11:20.116Z,97062.66
2023-05-10T21:13:46.681Z,97056.16
2023-05-10T21:16:13.134Z,97055.59
2023-05-10T21:18:39.637Z,97058.22
2023-05-10T21:21:06.150Z,97062.00
2023-05-10T21:23:34.458Z,97055.09
2023-05-10T21:26:03.424Z,97055.06
2023-05-10T21:28:29.927Z,97051.88
2023-05-10T21:30:56.736Z,97056.03
2023-05-10T21:33:23.781Z,97051.88
2023-05-10T21:35:50.560Z,97056.03
2023-05-10T21:38:17.125Z,97052.56
2023-05-10T21:40:43.614Z,97059.63
2023-05-10T21:43:11.169Z,97064.47
2023-05-10T21:45:38.056Z,97076.63
2023-05-10T21:48:04.611Z,97070.63
2023-05-10T21:50:31.153Z,97064.94
2023-05-10T21:52:57.795Z,97066.56
2023-05-10T21:55:24.361Z,97064.34
2023-05-10T21:57:51.240Z,97059.50
2023-05-10T22:00:19.260Z,97053.84
2023-05-10T22:02:46.544Z,97059.06
2023-05-10T22:05:13.542Z,97060.47
2023-05-10T22:07:40.049Z,97061.66
2023-05-10T22:10:08.368Z,97068.72
2023-05-10T22:12:34.811Z,97065.66
2023-05-10T22:15:10.326Z,97062.13
2023-05-10T22:17:39.327Z,97059.97
2023-05-10T22:20:09.651Z,97060.56
2023-05-10T22:22:36.738Z,97065.72
2023-05-10T22:25:04.848Z,97052.94
2023-05-10T22:27:31.318Z,97053.03
2023-05-10T22:29:57.767Z,97056.03
2023-05-10T22:32:24.315Z,97056.03
2023-05-10T22:34:50.740Z,97055.44
2023-05-10T22:37:17.899Z,97062.19
2023-05-10T22:39:48.722Z,97060.59
2023-05-10T22:42:16.277Z,97071.16
2023-05-10T22:44:44.240Z,97070.66
2023-05-10T22:47:10.896Z,97063.25
2023-05-10T22:49:37.407Z,97058.16
2023-05-10T22:52:03.959Z,97062.16
2023-05-10T22:54:30.541Z,97063.88
2023-05-10T22:56:57.109Z,97064.53
2023-05-10T22:59:23.725Z,97062.03
2023-05-10T23:01:50.675Z,97055.91
2023-05-10T23:04:17.299Z,97064.41
2023-05-10T23:06:43.829Z,97058.78
2023-05-10T23:09:10.380Z,97065.56
2023-05-10T23:11:36.879Z,97061.34
2023-05-10T23:14:03.498Z,97059.13
2023-05-10T23:16:30.498Z,97069.03
2023-05-10T23:18:57.103Z,97065.06
2023-05-10T23:21:25.266Z,97069.41
2023-05-10T23:23:52.415Z,97070.41
2023-05-10T23:26:18.982Z,97072.56
2023-05-10T23:28:45.496Z,97077.25
2023-05-10T23:31:11.989Z,97082.50
2023-05-10T23:33:38.649Z,97076.63
2023-05-10T23:36:05.381Z,97066.41
2023-05-10T23:38:31.916Z,97063.88
2023-05-10T23:40:58.446Z,97065.81
2023-05-10T23:43:25.428Z,97065.72
2023-05-10T23:45:56.497Z,97066.28
2023-05-10T23:48:23.378Z,97071.50
2023-05-10T23:50:50.046Z,97069.69
2023-05-10T23:53:16.663Z,97065.50
2023-05-10T23:55:43.276Z,97065.88
2023-05-10T23:58:09.844Z,97066.50
